createdAt,value
2017-08-15T00:00:44.562Z,19.65
2017-08-15T00:01:54.089Z,19.59
2017-08-15T00:03:02.979Z,19.59
2017-08-15T00:04:12.183Z,19.55
2017-08-15T00:05:21.714Z,19.48
2017-08-15T00:06:30.925Z,19.51
2017-08-15T00:07:40.285Z,19.5
2017-08-15T00:08:50.145Z,19.48
2017-08-15T00:09:59.355Z,19.46
2017-08-15T00:11:08.562Z,19.41
2017-08-15T00:12:17.448Z,19.4
2017-08-15T00:13:27.448Z,19.44
2017-08-15T00:14:37.299Z,19.44
2017-08-15T00:15:46.506Z,19.39
2017-08-15T00:16:55.387Z,19.41
2017-08-15T00:18:04.596Z,19.32
2017-08-15T00:19:13.652Z,19.31
2017-08-15T00:20:22.861Z,19.44
2017-08-15T00:21:32.068Z,19.39
2017-08-15T00:22:41.600Z,19.32
2017-08-15T00:23:51.135Z,19.29
2017-08-15T00:25:00.119Z,19.21
2017-08-15T00:26:09.660Z,19.19
2017-08-15T00:27:19.189Z,19.25
2017-08-15T00:28:29.046Z,19.23
2017-08-15T00:29:38.254Z,19.22
2017-08-15T00:30:47.785Z,19.18
2017-08-15T00:31:57.363Z,19.18
2017-08-15T00:33:06.894Z,19.19
2017-08-15T00:34:16.421Z,19.22
2017-08-15T00:35:26.277Z,19.19
2017-08-15T00:36:35.315Z,19.16
2017-08-15T00:37:44.521Z,19.16
2017-08-15T00:38:53.727Z,19.14
2017-08-15T00:40:03.257Z,19.04
2017-08-15T00:41:12.466Z,19.07
2017-08-15T00:42:21.972Z,19.11
2017-08-15T00:43:31.185Z,19.04
2017-08-15T00:44:41.357Z,19.07
2017-08-15T00:45:50.565Z,19.13
2017-08-15T00:47:00.420Z,19.06
2017-08-15T00:48:10.004Z,19.04
2017-08-15T00:49:20.182Z,18.9
2017-08-15T00:50:29.711Z,18.88
2017-08-15T00:51:39.564Z,18.88
2017-08-15T00:52:49.093Z,18.98
2017-08-15T00:53:58.671Z,18.95
2017-08-15T00:55:07.878Z,18.87
2017-08-15T00:56:17.740Z,18.88
2017-08-15T00:57:27.265Z,18.84
2017-08-15T00:58:36.469Z,18.85
2017-08-15T00:59:45.724Z,18.82
2017-08-15T01:00:55.255Z,18.81
2017-08-15T01:02:04.493Z,18.84
2017-08-15T01:03:13.697Z,18.84
2017-08-15T01:04:22.903Z,18.75
2017-08-15T01:05:32.536Z,18.72
2017-08-15T01:06:42.386Z,18.8
2017-08-15T01:07:51.914Z,18.78
2017-08-15T01:09:01.117Z,18.72
2017-08-15T01:10:10.323Z,18.78
2017-08-15T01:11:19.457Z,18.78
2017-08-15T01:12:28.356Z,18.72
2017-08-15T01:13:37.236Z,18.67
2017-08-15T01:14:46.122Z,18.65
2017-08-15T01:15:55.973Z,18.67
2017-08-15T01:17:05.750Z,18.69
2017-08-15T01:18:14.949Z,18.66
2017-08-15T01:19:24.477Z,18.62
2017-08-15T01:20:33.683Z,18.6
2017-08-15T01:21:43.214Z,18.55
2017-08-15T01:22:52.729Z,18.58
2017-08-15T01:24:02.260Z,18.54
2017-08-15T01:25:11.792Z,18.54
2017-08-15T01:26:21.327Z,18.63
2017-08-15T01:27:30.862Z,18.52
2017-08-15T01:28:40.863Z,18.57
2017-08-15T01:29:50.075Z,18.45
2017-08-15T01:30:59.601Z,18.48
2017-08-15T01:32:08.813Z,18.55
2017-08-15T01:33:18.999Z,18.47
2017-08-15T01:34:27.882Z,18.45
2017-08-15T01:35:37.086Z,18.48
2017-08-15T01:36:46.938Z,18.41
2017-08-15T01:37:56.139Z,18.41
2017-08-15T01:39:05.671Z,18.36
2017-08-15T01:40:14.875Z,18.42
2017-08-15T01:41:23.759Z,18.41
2017-08-15T01:42:33.293Z,18.47
2017-08-15T01:43:42.546Z,18.39
2017-08-15T01:44:52.076Z,18.32
2017-08-15T01:46:01.707Z,18.29
2017-08-15T01:47:11.239Z,18.3
2017-08-15T01:48:21.097Z,18.27
2017-08-15T01:49:30.303Z,18.29
2017-08-15T01:50:39.836Z,18.33
2017-08-15T01:51:49.366Z,18.21
2017-08-15T01:52:58.895Z,18.33
2017-08-15T01:54:08.427Z,18.26
2017-08-15T01:55:18.624Z,18.18
2017-08-15T01:56:28.152Z,18.21
2017-08-15T01:57:37.091Z,18.15
2017-08-15T01:58:46.299Z,18.18
2017-08-15T01:59:55.502Z,18.26
2017-08-15T02:01:05.354Z,18.18
2017-08-15T02:02:14.560Z,18.11
2017-08-15T02:03:23.794Z,18.23
2017-08-15T02:04:33.657Z,18.15
2017-08-15T02:05:43.188Z,18.18
2017-08-15T02:06:52.391Z,18.14
2017-08-15T02:08:01.922Z,18.27
2017-08-15T02:09:11.599Z,18.23
2017-08-15T02:10:20.478Z,18.23
2017-08-15T02:11:30.005Z,18.21
2017-08-15T02:12:39.211Z,18.23
2017-08-15T02:13:48.094Z,18.2
2017-08-15T02:14:57.399Z,18.18
2017-08-15T02:16:06.936Z,18.26
2017-08-15T02:17:16.469Z,18.2
2017-08-15T02:18:25.349Z,18.21
2017-08-15T02:19:35.530Z,18.15
2017-08-15T02:20:45.544Z,18.18
2017-08-15T02:21:54.757Z,18.11
2017-08-15T02:23:04.635Z,18.29
2017-08-15T02:24:13.842Z,18.18
2017-08-15T02:25:22.727Z,18.2
2017-08-15T02:26:31.983Z,18.18
2017-08-15T02:27:41.188Z,18.2
2017-08-15T02:28:50.715Z,18.17
2017-08-15T02:29:59.917Z,18.18
2017-08-15T02:31:09.130Z,18.14
2017-08-15T02:32:18.818Z,18.07
2017-08-15T02:33:28.359Z,18.08
2017-08-15T02:34:38.208Z,18.1
2017-08-15T02:35:47.100Z,18.11
2017-08-15T02:36:56.309Z,18
2017-08-15T02:38:05.679Z,18.05
2017-08-15T02:39:15.541Z,18.03
2017-08-15T02:40:25.071Z,18.05
2017-08-15T02:41:34.287Z,17.99
2017-08-15T02:42:43.833Z,18
2017-08-15T02:43:54.175Z,18.02
2017-08-15T02:45:03.058Z,17.97
2017-08-15T02:46:12.584Z,17.96
2017-08-15T02:47:21.483Z,17.99
2017-08-15T02:48:30.366Z,17.93
2017-08-15T02:49:40.147Z,17.97
2017-08-15T02:50:49.365Z,17.97
2017-08-15T02:51:58.899Z,17.95
2017-08-15T02:53:08.431Z,17.95
2017-08-15T02:54:18.284Z,17.95
2017-08-15T02:55:28.287Z,17.95
2017-08-15T02:56:37.169Z,17.89
2017-08-15T02:57:47.017Z,17.92
2017-08-15T02:58:56.223Z,17.95
2017-08-15T03:00:06.087Z,17.93
2017-08-15T03:01:15.408Z,17.84
2017-08-15T03:02:25.266Z,17.86
2017-08-15T03:03:34.795Z,17.87
2017-08-15T03:04:44.004Z,17.9
2017-08-15T03:05:53.207Z,17.87
2017-08-15T03:07:02.738Z,17.89
2017-08-15T03:08:12.265Z,17.86
2017-08-15T03:09:21.479Z,17.84
2017-08-15T03:10:30.685Z,17.9
2017-08-15T03:11:39.569Z,17.89
2017-08-15T03:12:49.151Z,17.87
2017-08-15T03:13:58.358Z,17.86
2017-08-15T03:15:07.568Z,17.87
2017-08-15T03:16:16.448Z,17.87
2017-08-15T03:17:25.665Z,17.87
2017-08-15T03:18:35.349Z,17.9
2017-08-15T03:19:44.557Z,17.92
2017-08-15T03:20:54.087Z,17.95
2017-08-15T03:22:03.293Z,17.84
2017-08-15T03:23:12.828Z,17.87
2017-08-15T03:24:22.656Z,17.93
2017-08-15T03:25:32.510Z,17.92
2017-08-15T03:26:42.371Z,17.93
2017-08-15T03:27:51.908Z,17.93
2017-08-15T03:29:01.115Z,17.93
2017-08-15T03:30:10.660Z,17.95
2017-08-15T03:31:20.204Z,17.93
2017-08-15T03:32:29.732Z,17.95
2017-08-15T03:33:38.948Z,17.95
2017-08-15T03:34:48.470Z,17.92
2017-08-15T03:35:58.004Z,17.92
2017-08-15T03:37:07.863Z,17.95
2017-08-15T03:38:17.069Z,17.86
2017-08-15T03:39:26.287Z,17.96
2017-08-15T03:40:35.821Z,17.92
2017-08-15T03:41:45.401Z,17.89
2017-08-15T03:42:54.607Z,17.96
2017-08-15T03:44:04.135Z,17.93
2017-08-15T03:45:13.664Z,17.95
2017-08-15T03:46:23.516Z,17.93
2017-08-15T03:47:32.776Z,17.82
2017-08-15T03:48:42.307Z,17.93
2017-08-15T03:49:51.516Z,17.89
2017-08-15T03:51:00.727Z,17.9
2017-08-15T03:52:10.257Z,17.89
2017-08-15T03:53:19.613Z,17.93
2017-08-15T03:54:28.823Z,17.78
2017-08-15T03:55:38.678Z,17.82
2017-08-15T03:56:47.885Z,17.77
2017-08-15T03:57:57.736Z,17.82
2017-08-15T03:59:07.963Z,17.77
2017-08-15T04:00:17.820Z,17.77
2017-08-15T04:01:27.677Z,17.89
2017-08-15T04:02:37.214Z,17.87
2017-08-15T04:03:46.738Z,17.78
2017-08-15T04:04:55.945Z,17.77
2017-08-15T04:06:05.472Z,17.79
2017-08-15T04:07:14.364Z,17.75
2017-08-15T04:08:23.893Z,17.79
2017-08-15T04:09:32.774Z,17.77
2017-08-15T04:10:42.286Z,17.75
2017-08-15T04:11:51.490Z,17.81
2017-08-15T04:13:01.023Z,17.75
2017-08-15T04:14:10.873Z,17.79
2017-08-15T04:15:20.397Z,17.82
2017-08-15T04:16:29.756Z,17.72
2017-08-15T04:17:38.962Z,17.81
2017-08-15T04:18:48.167Z,17.75
2017-08-15T04:19:57.698Z,17.81
2017-08-15T04:21:06.918Z,17.74
2017-08-15T04:22:16.556Z,17.72
2017-08-15T04:23:25.446Z,17.77
2017-08-15T04:24:34.652Z,17.72
2017-08-15T04:25:43.550Z,17.75
2017-08-15T04:26:52.756Z,17.81
2017-08-15T04:28:02.590Z,17.72
2017-08-15T04:29:11.798Z,17.66
2017-08-15T04:30:21.661Z,17.64
2017-08-15T04:31:30.876Z,17.72
2017-08-15T04:32:39.760Z,17.75
2017-08-15T04:33:49.110Z,17.74
2017-08-15T04:34:58.314Z,17.75
2017-08-15T04:36:07.524Z,17.77
2017-08-15T04:37:16.735Z,17.78
2017-08-15T04:38:26.272Z,17.74
2017-08-15T04:39:35.312Z,17.74
2017-08-15T04:40:44.841Z,17.66
2017-08-15T04:41:54.046Z,17.68
2017-08-15T04:43:03.251Z,17.71
2017-08-15T04:44:12.476Z,17.7
2017-08-15T04:45:21.661Z,17.74
2017-08-15T04:46:31.523Z,17.75
2017-08-15T04:47:40.755Z,17.75
2017-08-15T04:48:49.964Z,17.63
2017-08-15T04:49:58.872Z,17.64
2017-08-15T04:51:08.560Z,17.55
2017-08-15T04:52:17.451Z,17.66
2017-08-15T04:53:26.654Z,17.71
2017-08-15T04:54:35.861Z,17.52
2017-08-15T04:55:44.749Z,17.63
2017-08-15T04:56:54.278Z,17.63
2017-08-15T04:58:03.490Z,17.62
2017-08-15T04:59:12.697Z,17.54
2017-08-15T05:00:22.320Z,17.62
2017-08-15T05:01:31.531Z,17.58
2017-08-15T05:02:41.065Z,17.58
2017-08-15T05:03:50.279Z,17.49
2017-08-15T05:04:59.165Z,17.56
2017-08-15T05:06:08.697Z,17.54
2017-08-15T05:07:18.060Z,17.52
2017-08-15T05:08:26.947Z,17.54
2017-08-15T05:09:36.159Z,17.58
2017-08-15T05:10:45.705Z,17.54
2017-08-15T05:11:54.842Z,17.43
2017-08-15T05:13:04.374Z,17.49
2017-08-15T05:14:14.227Z,17.43
2017-08-15T05:15:23.770Z,17.37
2017-08-15T05:16:32.656Z,17.44
2017-08-15T05:17:41.547Z,17.44
2017-08-15T05:18:50.759Z,17.41
2017-08-15T05:20:00.612Z,17.41
2017-08-15T05:21:10.481Z,17.36
2017-08-15T05:22:20.635Z,17.31
2017-08-15T05:23:30.169Z,17.37
2017-08-15T05:24:39.703Z,17.37
2017-08-15T05:25:48.910Z,17.33
2017-08-15T05:26:58.115Z,17.36
2017-08-15T05:28:07.803Z,17.34
2017-08-15T05:29:17.026Z,17.38
2017-08-15T05:30:26.565Z,17.34
2017-08-15T05:31:35.772Z,17.33
2017-08-15T05:32:45.313Z,17.37
2017-08-15T05:33:54.949Z,17.31
2017-08-15T05:35:04.155Z,17.3
2017-08-15T05:36:13.693Z,17.3
2017-08-15T05:37:23.225Z,17.31
2017-08-15T05:38:32.429Z,17.31
2017-08-15T05:39:41.783Z,17.34
2017-08-15T05:40:50.990Z,17.36
2017-08-15T05:41:59.873Z,17.37
2017-08-15T05:43:09.089Z,17.33
2017-08-15T05:44:18.624Z,17.38
2017-08-15T05:45:28.302Z,17.37
2017-08-15T05:46:37.843Z,17.46
2017-08-15T05:47:47.372Z,17.43
2017-08-15T05:48:56.255Z,17.46
2017-08-15T05:50:05.465Z,17.52
2017-08-15T05:51:14.723Z,17.51
2017-08-15T05:52:23.930Z,17.56
2017-08-15T05:53:33.135Z,17.52
2017-08-15T05:54:42.023Z,17.51
2017-08-15T05:55:51.233Z,17.54
2017-08-15T05:57:01.069Z,17.59
2017-08-15T05:58:09.955Z,17.63
2017-08-15T05:59:19.809Z,17.52
2017-08-15T06:00:29.011Z,17.54
2017-08-15T06:01:38.563Z,17.55
2017-08-15T06:02:47.547Z,17.66
2017-08-15T06:03:56.749Z,17.68
2017-08-15T06:05:06.933Z,17.68
2017-08-15T06:06:16.148Z,17.71
2017-08-15T06:07:25.680Z,17.74
2017-08-15T06:08:35.587Z,17.75
2017-08-15T06:09:44.478Z,17.63
2017-08-15T06:10:53.694Z,17.78
2017-08-15T06:12:02.899Z,17.81
2017-08-15T06:13:12.114Z,17.82
2017-08-15T06:14:22.052Z,17.78
2017-08-15T06:15:31.262Z,17.9
2017-08-15T06:16:40.471Z,17.87
2017-08-15T06:17:50.007Z,17.92
2017-08-15T06:18:59.536Z,17.84
2017-08-15T06:20:09.120Z,17.89
2017-08-15T06:21:18.649Z,17.96
2017-08-15T06:22:28.184Z,17.95
2017-08-15T06:23:38.041Z,17.99
2017-08-15T06:24:47.569Z,17.99
2017-08-15T06:25:57.028Z,18.08
2017-08-15T06:27:06.558Z,18.1
2017-08-15T06:28:16.420Z,18.12
2017-08-15T06:29:25.959Z,18.08
2017-08-15T06:30:35.493Z,18.12
2017-08-15T06:31:45.179Z,18.2
2017-08-15T06:32:55.034Z,18.23
2017-08-15T06:34:04.569Z,18.21
2017-08-15T06:35:13.774Z,18.17
2017-08-15T06:36:22.977Z,18.3
2017-08-15T06:37:32.828Z,18.29
2017-08-15T06:38:41.716Z,18.32
2017-08-15T06:39:51.256Z,18.25
2017-08-15T06:41:00.153Z,18.35
2017-08-15T06:42:10.339Z,18.33
2017-08-15T06:43:20.503Z,18.45
2017-08-15T06:44:29.713Z,18.39
2017-08-15T06:45:39.243Z,18.48
2017-08-15T06:46:49.424Z,18.48
2017-08-15T06:47:58.952Z,18.42
2017-08-15T06:49:08.214Z,18.51
2017-08-15T06:50:17.454Z,18.55
2017-08-15T06:51:26.996Z,18.62
2017-08-15T06:52:36.211Z,18.72
2017-08-15T06:53:45.429Z,18.63
2017-08-15T06:54:54.684Z,18.67
2017-08-15T06:56:04.214Z,18.81
2017-08-15T06:57:14.073Z,18.8
2017-08-15T06:58:22.961Z,18.72
2017-08-15T06:59:31.845Z,18.81
2017-08-15T07:00:41.430Z,18.88
2017-08-15T07:01:50.969Z,19
2017-08-15T07:03:01.148Z,18.88
2017-08-15T07:04:10.361Z,18.95
2017-08-15T07:05:20.219Z,18.98
2017-08-15T07:06:29.950Z,18.98
2017-08-15T07:07:39.152Z,18.98
2017-08-15T07:08:48.036Z,19.04
2017-08-15T07:09:56.926Z,18.9
2017-08-15T07:11:06.470Z,19.07
2017-08-15T07:12:15.404Z,19.08
2017-08-15T07:13:24.934Z,19.04
2017-08-15T07:14:34.146Z,19.18
2017-08-15T07:15:44.006Z,19.19
2017-08-15T07:16:53.542Z,19.23
2017-08-15T07:18:03.126Z,19.29
2017-08-15T07:19:12.333Z,19.28
2017-08-15T07:20:21.217Z,19.26
2017-08-15T07:21:30.107Z,19.32
2017-08-15T07:22:39.637Z,19.39
2017-08-15T07:23:49.270Z,19.41
2017-08-15T07:24:59.127Z,19.41
2017-08-15T07:26:08.982Z,19.46
2017-08-15T07:27:18.852Z,19.56
2017-08-15T07:28:28.703Z,19.58
2017-08-15T07:29:38.116Z,19.55
2017-08-15T07:30:47.652Z,19.56
2017-08-15T07:31:57.830Z,19.56
2017-08-15T07:33:07.037Z,19.73
2017-08-15T07:34:16.244Z,19.8
2017-08-15T07:35:25.458Z,19.76
2017-08-15T07:36:34.992Z,19.8
2017-08-15T07:37:44.532Z,19.86
2017-08-15T07:38:53.745Z,19.94
2017-08-15T07:40:03.921Z,19.91
2017-08-15T07:41:13.607Z,20.08
2017-08-15T07:42:22.820Z,20.06
2017-08-15T07:43:32.356Z,20.05
2017-08-15T07:44:41.896Z,20.08
2017-08-15T07:45:51.113Z,20.2
2017-08-15T07:47:00.526Z,20.23
2017-08-15T07:48:10.055Z,20.21
2017-08-15T07:49:18.948Z,20.29
2017-08-15T07:50:28.480Z,20.32
2017-08-15T07:51:38.026Z,20.5
2017-08-15T07:52:47.452Z,20.33
2017-08-15T07:53:57.311Z,20.41
2017-08-15T07:55:06.846Z,20.48
2017-08-15T07:56:16.389Z,20.55
2017-08-15T07:57:26.250Z,20.62
2017-08-15T07:58:35.285Z,20.67
2017-08-15T07:59:44.492Z,20.67
2017-08-15T08:00:54.027Z,20.7
2017-08-15T08:02:03.562Z,20.76
2017-08-15T08:03:13.096Z,20.79
2017-08-15T08:04:22.458Z,20.84
2017-08-15T08:05:31.346Z,20.84
2017-08-15T08:06:40.229Z,20.88
2017-08-15T08:07:49.765Z,20.79
2017-08-15T08:08:58.978Z,20.74
2017-08-15T08:10:08.246Z,20.87
2017-08-15T08:11:17.459Z,20.79
2017-08-15T08:12:26.349Z,20.85
2017-08-15T08:13:35.880Z,20.85
2017-08-15T08:14:44.765Z,21.04
2017-08-15T08:15:54.446Z,21.12
2017-08-15T08:17:03.986Z,21.16
2017-08-15T08:18:13.194Z,21.22
2017-08-15T08:19:22.077Z,21.28
2017-08-15T08:20:30.963Z,21.32
2017-08-15T08:21:40.322Z,21.44
2017-08-15T08:22:49.860Z,21.43
2017-08-15T08:23:59.392Z,21.5
2017-08-15T08:25:08.930Z,21.58
2017-08-15T08:26:18.137Z,21.61
2017-08-15T08:27:27.935Z,21.61
2017-08-15T08:28:37.164Z,21.64
2017-08-15T08:29:46.053Z,21.75
2017-08-15T08:30:55.911Z,21.8
2017-08-15T08:32:05.448Z,21.82
2017-08-15T08:33:14.813Z,21.72
2017-08-15T08:34:24.019Z,21.77
2017-08-15T08:35:33.560Z,21.84
2017-08-15T08:36:42.772Z,21.88
2017-08-15T08:37:51.983Z,21.94
2017-08-15T08:39:01.345Z,22.03
2017-08-15T08:40:10.560Z,21.99
2017-08-15T08:41:20.093Z,22.05
2017-08-15T08:42:30.275Z,22.09
2017-08-15T08:43:39.196Z,22.07
2017-08-15T08:44:48.930Z,22.12
2017-08-15T08:45:57.819Z,22.17
2017-08-15T08:47:07.353Z,22.18
2017-08-15T08:48:16.886Z,22.33
2017-08-15T08:49:26.421Z,22.4
2017-08-15T08:50:35.460Z,22.51
2017-08-15T08:51:44.992Z,22.57
2017-08-15T08:52:53.879Z,22.58
2017-08-15T08:54:03.089Z,22.54
2017-08-15T08:55:12.008Z,22.55
2017-08-15T08:56:21.975Z,22.6
2017-08-15T08:57:31.187Z,22.73
2017-08-15T08:58:40.080Z,22.75
2017-08-15T08:59:49.624Z,22.76
2017-08-15T09:00:59.167Z,22.68
2017-08-15T09:02:08.702Z,22.79
2017-08-15T09:03:18.252Z,22.85
2017-08-15T09:04:27.795Z,22.86
2017-08-15T09:05:37.349Z,22.82
2017-08-15T09:06:46.573Z,22.88
2017-08-15T09:07:56.116Z,22.92
2017-08-15T09:09:05.330Z,22.9
2017-08-15T09:10:14.539Z,22.9
2017-08-15T09:11:24.076Z,23.07
2017-08-15T09:12:32.962Z,23.12
2017-08-15T09:13:42.665Z,23.15
2017-08-15T09:14:52.527Z,23.35
2017-08-15T09:16:01.740Z,23.39
2017-08-15T09:17:11.601Z,23.38
2017-08-15T09:18:20.817Z,23.4
2017-08-15T09:19:30.941Z,23.58
2017-08-15T09:20:40.478Z,23.51
2017-08-15T09:21:50.020Z,23.57
2017-08-15T09:22:59.255Z,23.63
2017-08-15T09:24:09.115Z,23.54
2017-08-15T09:25:18.849Z,23.69
2017-08-15T09:26:28.068Z,23.69
2017-08-15T09:27:37.602Z,23.7
2017-08-15T09:28:47.467Z,23.7
2017-08-15T09:29:57.331Z,23.78
2017-08-15T09:31:07.846Z,23.78
2017-08-15T09:32:17.722Z,23.9
2017-08-15T09:33:27.263Z,23.91
2017-08-15T09:34:37.121Z,24.05
2017-08-15T09:35:46.014Z,24.09
2017-08-15T09:36:55.755Z,24.08
2017-08-15T09:38:05.294Z,24.13
2017-08-15T09:39:14.831Z,24.2
2017-08-15T09:40:24.050Z,24.16
2017-08-15T09:41:33.267Z,24.39
2017-08-15T09:42:42.908Z,24.37
2017-08-15T09:43:52.118Z,24.49
2017-08-15T09:45:01.333Z,24.43
2017-08-15T09:46:11.933Z,24.45
2017-08-15T09:47:21.149Z,24.53
2017-08-15T09:48:30.938Z,24.57
2017-08-15T09:49:40.805Z,24.62
2017-08-15T09:50:50.026Z,24.67
2017-08-15T09:51:59.249Z,24.73
2017-08-15T09:53:09.111Z,24.73
2017-08-15T09:54:18.798Z,24.87
2017-08-15T09:55:27.699Z,24.88
2017-08-15T09:56:37.235Z,24.9
2017-08-15T09:57:46.448Z,24.78
2017-08-15T09:58:55.993Z,24.84
2017-08-15T10:00:06.054Z,24.91
2017-08-15T10:01:15.925Z,24.73
2017-08-15T10:02:24.817Z,24.78
2017-08-15T10:03:35.002Z,24.99
2017-08-15T10:04:45.191Z,25.14
2017-08-15T10:05:55.037Z,25.2
2017-08-15T10:07:05.230Z,25.28
2017-08-15T10:08:14.443Z,25.3
2017-08-15T10:09:23.998Z,25.42
2017-08-15T10:10:33.531Z,25.4
2017-08-15T10:11:43.219Z,25.55
2017-08-15T10:12:53.435Z,25.61
2017-08-15T10:14:03.295Z,25.75
2017-08-15T10:15:12.829Z,25.85
2017-08-15T10:16:22.092Z,25.85
2017-08-15T10:17:31.458Z,25.97
2017-08-15T10:18:40.996Z,26.02
2017-08-15T10:19:50.541Z,26.13
2017-08-15T10:21:00.410Z,26.2
2017-08-15T10:22:09.629Z,26.2
2017-08-15T10:23:18.829Z,26.32
2017-08-15T10:24:28.706Z,26.35
2017-08-15T10:25:38.577Z,26.33
2017-08-15T10:26:48.478Z,26.5
2017-08-15T10:27:58.342Z,26.45
2017-08-15T10:29:08.357Z,26.51
2017-08-15T10:30:17.586Z,26.58
2017-08-15T10:31:26.475Z,26.62
2017-08-15T10:32:36.012Z,26.57
2017-08-15T10:33:45.883Z,26.54
2017-08-15T10:34:56.385Z,26.58
2017-08-15T10:36:05.920Z,26.63
2017-08-15T10:37:15.466Z,26.7
2017-08-15T10:38:25.016Z,26.72
2017-08-15T10:39:35.206Z,26.65
2017-08-15T10:40:44.571Z,26.84
2017-08-15T10:41:54.465Z,26.88
2017-08-15T10:43:04.648Z,26.87
2017-08-15T10:44:14.193Z,26.92
2017-08-15T10:45:23.755Z,26.95
2017-08-15T10:46:33.547Z,26.97
2017-08-15T10:47:43.418Z,26.92
2017-08-15T10:48:53.282Z,26.99
2017-08-15T10:50:03.150Z,26.95
2017-08-15T10:51:13.010Z,26.88
2017-08-15T10:52:23.302Z,26.75
2017-08-15T10:53:32.842Z,26.84
2017-08-15T10:54:42.382Z,26.97
2017-08-15T10:55:52.273Z,26.92
2017-08-15T10:57:01.490Z,26.95
2017-08-15T10:58:11.345Z,26.85
2017-08-15T10:59:21.206Z,26.87
2017-08-15T11:00:30.741Z,26.99
2017-08-15T11:01:40.283Z,27.04
2017-08-15T11:02:49.181Z,27.04
2017-08-15T11:03:58.868Z,27.03
2017-08-15T11:05:08.093Z,27.1
2017-08-15T11:06:17.637Z,27.17
2017-08-15T11:07:27.497Z,27.13
2017-08-15T11:08:36.715Z,27.24
2017-08-15T11:09:46.725Z,27.28
2017-08-15T11:10:55.942Z,27.28
2017-08-15T11:12:05.488Z,27.24
2017-08-15T11:13:15.026Z,27.21
2017-08-15T11:14:24.567Z,27.21
2017-08-15T11:15:34.542Z,27.25
2017-08-15T11:16:43.758Z,27.22
2017-08-15T11:17:53.301Z,27.28
2017-08-15T11:19:03.162Z,27.29
2017-08-15T11:20:12.701Z,27.36
2017-08-15T11:21:22.441Z,27.44
2017-08-15T11:22:31.336Z,27.37
2017-08-15T11:23:40.560Z,27.37
2017-08-15T11:24:50.422Z,27.47
2017-08-15T11:25:59.643Z,27.44
2017-08-15T11:27:10.040Z,27.43
2017-08-15T11:28:19.257Z,27.4
2017-08-15T11:29:28.797Z,27.44
2017-08-15T11:30:38.995Z,27.44
2017-08-15T11:31:48.543Z,27.4
2017-08-15T11:32:57.956Z,27.54
2017-08-15T11:34:07.181Z,27.49
2017-08-15T11:35:17.044Z,27.57
2017-08-15T11:36:26.584Z,27.57
2017-08-15T11:37:35.813Z,27.77
2017-08-15T11:38:45.084Z,27.67
2017-08-15T11:39:55.271Z,27.7
2017-08-15T11:41:05.135Z,27.67
2017-08-15T11:42:14.678Z,27.7
2017-08-15T11:43:24.218Z,27.54
2017-08-15T11:44:34.261Z,27.55
2017-08-15T11:45:44.130Z,27.55
2017-08-15T11:46:53.683Z,27.51
2017-08-15T11:48:03.223Z,27.65
2017-08-15T11:49:12.763Z,27.65
2017-08-15T11:50:22.405Z,27.62
2017-08-15T11:51:31.303Z,27.77
2017-08-15T11:52:40.525Z,27.77
2017-08-15T11:53:49.425Z,27.74
2017-08-15T11:54:59.293Z,27.72
2017-08-15T11:56:08.661Z,27.77
2017-08-15T11:57:17.557Z,27.82
2017-08-15T11:58:27.102Z,27.69
2017-08-15T11:59:36.321Z,27.84
2017-08-15T12:00:45.859Z,27.63
2017-08-15T12:01:55.654Z,27.67
2017-08-15T12:03:05.839Z,27.67
2017-08-15T12:04:15.057Z,27.67
2017-08-15T12:05:23.988Z,27.66
2017-08-15T12:06:33.214Z,27.66
2017-08-15T12:07:42.579Z,27.63
2017-08-15T12:08:52.121Z,27.6
2017-08-15T12:10:01.987Z,27.6
2017-08-15T12:11:11.853Z,27.59
2017-08-15T12:12:20.754Z,27.62
2017-08-15T12:13:30.128Z,27.59
2017-08-15T12:14:39.345Z,27.55
2017-08-15T12:15:48.893Z,27.44
2017-08-15T12:16:58.434Z,27.49
2017-08-15T12:18:08.301Z,27.46
2017-08-15T12:19:17.626Z,27.46
2017-08-15T12:20:26.850Z,27.57
2017-08-15T12:21:36.070Z,27.57
2017-08-15T12:22:45.294Z,27.43
2017-08-15T12:23:54.530Z,27.46
2017-08-15T12:25:04.396Z,27.62
2017-08-15T12:26:13.615Z,27.49
2017-08-15T12:27:22.837Z,27.47
2017-08-15T12:28:32.699Z,27.59
2017-08-15T12:29:42.563Z,27.51
2017-08-15T12:30:52.154Z,27.66
2017-08-15T12:32:01.693Z,27.67
2017-08-15T12:33:11.621Z,27.75
2017-08-15T12:34:21.490Z,27.66
2017-08-15T12:35:31.358Z,27.7
2017-08-15T12:36:41.149Z,27.78
2017-08-15T12:37:50.362Z,27.78
2017-08-15T12:39:00.230Z,27.84
2017-08-15T12:40:10.419Z,27.92
2017-08-15T12:41:20.301Z,28.03
2017-08-15T12:42:29.565Z,27.94
2017-08-15T12:43:38.791Z,27.97
2017-08-15T12:44:48.350Z,27.88
2017-08-15T12:45:57.571Z,27.96
2017-08-15T12:47:07.440Z,27.9
2017-08-15T12:48:17.140Z,27.92
2017-08-15T12:49:26.680Z,27.88
2017-08-15T12:50:36.225Z,27.96
2017-08-15T12:51:45.765Z,28.03
2017-08-15T12:52:54.980Z,28.03
2017-08-15T12:54:05.050Z,27.94
2017-08-15T12:55:14.951Z,28.06
2017-08-15T12:56:25.365Z,28.02
2017-08-15T12:57:35.283Z,28.03
2017-08-15T12:58:44.844Z,27.99
2017-08-15T12:59:54.586Z,27.84
2017-08-15T13:01:04.490Z,27.9
2017-08-15T13:02:14.030Z,27.96
2017-08-15T13:03:22.936Z,27.92
2017-08-15T13:04:32.805Z,28
2017-08-15T13:05:41.853Z,27.77
2017-08-15T13:06:51.718Z,27.75
2017-08-15T13:08:01.269Z,27.74
2017-08-15T13:09:11.138Z,27.77
2017-08-15T13:10:20.363Z,27.72
2017-08-15T13:11:29.917Z,27.65
2017-08-15T13:12:39.792Z,27.54
2017-08-15T13:13:49.663Z,27.62
2017-08-15T13:14:59.850Z,27.55
2017-08-15T13:16:10.043Z,27.49
2017-08-15T13:17:18.942Z,27.62
2017-08-15T13:18:28.809Z,27.67
2017-08-15T13:19:38.670Z,27.78
2017-08-15T13:20:48.542Z,27.9
2017-08-15T13:21:58.734Z,27.97
2017-08-15T13:23:08.104Z,28.03
2017-08-15T13:24:17.329Z,28.15
2017-08-15T13:25:26.868Z,28.18
2017-08-15T13:26:35.760Z,28.33
2017-08-15T13:27:45.307Z,28.44
2017-08-15T13:28:54.732Z,28.44
2017-08-15T13:30:04.929Z,28.4
2017-08-15T13:31:14.472Z,28.36
2017-08-15T13:32:23.701Z,28.33
2017-08-15T13:33:32.933Z,28.27
2017-08-15T13:34:42.526Z,28.17
2017-08-15T13:35:52.398Z,28.07
2017-08-15T13:37:02.281Z,28.03
2017-08-15T13:38:11.503Z,28.03
2017-08-15T13:39:21.042Z,28.07
2017-08-15T13:40:30.513Z,28.09
2017-08-15T13:41:40.067Z,28.21
2017-08-15T13:42:49.608Z,28.22
2017-08-15T13:43:58.832Z,28.18
2017-08-15T13:45:08.703Z,28.21
2017-08-15T13:46:18.666Z,28.3
2017-08-15T13:47:28.211Z,28.25
2017-08-15T13:48:37.431Z,28.33
2017-08-15T13:49:46.329Z,28.49
2017-08-15T13:50:56.517Z,28.49
2017-08-15T13:52:06.568Z,28.58
2017-08-15T13:53:15.820Z,28.55
2017-08-15T13:54:25.067Z,28.55
2017-08-15T13:55:34.290Z,28.49
2017-08-15T13:56:44.476Z,28.48
2017-08-15T13:57:53.712Z,28.51
2017-08-15T13:59:03.262Z,28.46
2017-08-15T14:00:12.808Z,28.41
2017-08-15T14:01:22.036Z,28.44
2017-08-15T14:02:31.253Z,28.4
2017-08-15T14:03:40.801Z,28.34
2017-08-15T14:04:50.668Z,28.3
2017-08-15T14:06:00.414Z,28.31
2017-08-15T14:07:10.287Z,28.27
2017-08-15T14:08:19.833Z,28.18
2017-08-15T14:09:30.018Z,28.17
2017-08-15T14:10:40.210Z,28.06
2017-08-15T14:11:50.401Z,28.07
2017-08-15T14:12:59.621Z,28.03
2017-08-15T14:14:09.163Z,28.04
2017-08-15T14:15:18.384Z,28.09
2017-08-15T14:16:27.932Z,28
2017-08-15T14:17:37.475Z,27.99
2017-08-15T14:18:46.370Z,28.06
2017-08-15T14:19:55.266Z,28.09
2017-08-15T14:21:04.493Z,28.02
2017-08-15T14:22:13.713Z,28.02
2017-08-15T14:23:23.368Z,28.04
2017-08-15T14:24:32.268Z,28.02
2017-08-15T14:25:41.491Z,28.03
2017-08-15T14:26:51.035Z,28.06
2017-08-15T14:27:59.940Z,28.03
2017-08-15T14:29:10.800Z,27.97
2017-08-15T14:30:20.021Z,28.02
2017-08-15T14:31:29.893Z,28
2017-08-15T14:32:39.438Z,28.06
2017-08-15T14:33:49.300Z,28.03
2017-08-15T14:34:58.843Z,28.03
2017-08-15T14:36:08.394Z,27.96
2017-08-15T14:37:18.582Z,28
2017-08-15T14:38:28.770Z,27.88
2017-08-15T14:39:38.633Z,27.93
2017-08-15T14:40:47.583Z,27.96
2017-08-15T14:41:57.771Z,27.94
2017-08-15T14:43:07.639Z,27.78
2017-08-15T14:44:16.540Z,27.78
2017-08-15T14:45:25.760Z,27.74
2017-08-15T14:46:34.952Z,27.69
2017-08-15T14:47:44.833Z,27.79
2017-08-15T14:48:54.050Z,27.54
2017-08-15T14:50:02.940Z,27.63
2017-08-15T14:51:12.806Z,27.57
2017-08-15T14:52:22.866Z,27.9
2017-08-15T14:53:33.063Z,28.12
2017-08-15T14:54:42.619Z,28.4
2017-08-15T14:55:52.482Z,28.86
2017-08-15T14:57:02.042Z,29.15
2017-08-15T14:58:11.729Z,29.51